Terminal Aerodrome Forecast
Issued by NWS Jackson, KY

Home | Current Version | Previous Version | Text Only | Print | Product List | Glossary On
Versions: 1 2 3 4 5 6 7 8 9 10
503
FTUS43 KJKL 072339
TAFJKL
TAF
KJKL 072339Z 0800/0824 VRB03KT P6SM SCT150
     FM080700 22003KT P6SM BKN040 BKN100
     FM081000 22003KT 5SM -SHRA OVC020
     FM081200 24004KT 2SM -SHRA BR BKN008 OVC015
     FM081400 27006KT P6SM BKN015
     FM081600 27007KT 3SM -SHRA VCTS BKN012CB=

USA.gov is the U.S. government's official web portal to all federal, state and local government web resources and services.